createdAt,value
2018-07-26T04:10:28.638Z,412
2018-07-26T04:10:54.120Z,420
2018-07-26T04:11:19.594Z,432
2018-07-26T04:11:45.101Z,440
2018-07-26T04:12:10.608Z,452
2018-07-26T04:12:36.098Z,464
2018-07-26T04:13:01.610Z,472
2018-07-26T04:13:27.105Z,480
2018-07-26T04:13:52.735Z,488
2018-07-26T04:14:18.230Z,496
2018-07-26T04:14:43.719Z,508
2018-07-26T04:15:09.198Z,516
2018-07-26T04:15:34.698Z,524
2018-07-26T04:16:00.175Z,536
2018-07-26T04:16:25.672Z,548
2018-07-26T04:16:51.174Z,556
2018-07-26T04:17:16.660Z,568
2018-07-26T04:17:42.164Z,580
2018-07-26T04:18:07.627Z,596
2018-07-26T04:18:33.115Z,612
2018-07-26T04:18:58.614Z,628
2018-07-26T04:19:24.153Z,644
2018-07-26T04:19:49.661Z,660
2018-07-26T04:20:15.098Z,676
2018-07-26T04:20:40.600Z,692
2018-07-26T04:21:06.083Z,704
2018-07-26T04:21:31.594Z,720
2018-07-26T04:21:57.097Z,728
2018-07-26T04:22:22.593Z,740
2018-07-26T04:22:48.028Z,756
2018-07-26T04:23:13.535Z,768
2018-07-26T04:23:39.058Z,780
2018-07-26T04:24:04.573Z,792
2018-07-26T04:24:30.031Z,800
2018-07-26T04:24:55.462Z,816
2018-07-26T04:25:21.026Z,832
2018-07-26T04:25:46.520Z,844
2018-07-26T04:26:12.109Z,856
2018-07-26T04:26:37.536Z,868
2018-07-26T04:27:03.043Z,888
2018-07-26T04:27:28.548Z,900
2018-07-26T04:27:54.035Z,920
2018-07-26T04:28:19.628Z,936
2018-07-26T04:28:45.128Z,956
2018-07-26T04:29:10.611Z,972
2018-07-26T04:29:36.028Z,988
2018-07-26T04:30:01.553Z,1004
2018-07-26T04:30:27.052Z,1020
2018-07-26T04:30:52.525Z,1032
2018-07-26T04:31:17.951Z,1052
2018-07-26T04:31:43.580Z,1076
2018-07-26T04:32:09.000Z,1092
2018-07-26T04:32:34.443Z,1116
2018-07-26T04:32:59.903Z,1136
2018-07-26T04:33:25.429Z,1156
2018-07-26T04:33:50.889Z,1180
2018-07-26T04:34:16.313Z,1196
2018-07-26T04:34:41.776Z,1220
2018-07-26T04:35:07.274Z,1244
2018-07-26T04:35:32.789Z,1260
2018-07-26T04:35:58.213Z,1288
2018-07-26T04:36:23.686Z,1312
2018-07-26T04:36:49.282Z,1332
2018-07-26T04:37:14.764Z,1360
2018-07-26T04:37:40.212Z,1384
2018-07-26T04:38:05.709Z,1412
2018-07-26T04:38:31.190Z,1432
2018-07-26T04:38:56.667Z,1448
2018-07-26T04:39:22.198Z,1460
2018-07-26T04:39:47.708Z,1480
2018-07-26T04:40:13.242Z,1488
2018-07-26T04:40:38.693Z,1508
2018-07-26T04:41:04.161Z,1524
2018-07-26T04:41:29.653Z,1540
2018-07-26T04:41:55.142Z,1564
2018-07-26T04:42:20.634Z,1592
2018-07-26T04:42:46.201Z,1628
2018-07-26T04:43:11.642Z,1672
2018-07-26T04:43:37.176Z,1720
2018-07-26T04:44:02.679Z,1776
2018-07-26T04:44:28.161Z,1828
2018-07-26T04:44:53.716Z,1880
2018-07-26T04:45:19.284Z,1936
2018-07-26T04:45:44.739Z,1992
2018-07-26T04:46:10.244Z,2044
2018-07-26T04:46:35.670Z,2096
2018-07-26T04:47:01.170Z,2152
2018-07-26T04:47:26.736Z,2200
2018-07-26T04:47:52.341Z,2248
2018-07-26T04:48:17.785Z,2296
2018-07-26T04:48:43.243Z,2340
2018-07-26T04:49:08.742Z,2384
2018-07-26T04:49:34.276Z,2424
2018-07-26T04:49:59.872Z,2456
2018-07-26T04:50:25.589Z,2492
2018-07-26T04:50:50.995Z,2528
2018-07-26T04:51:16.619Z,2560
2018-07-26T04:51:42.058Z,2588
2018-07-26T04:52:07.490Z,2620
2018-07-26T04:52:33.119Z,2648
2018-07-26T04:52:59.013Z,2672
2018-07-26T04:53:24.458Z,2700
2018-07-26T04:53:49.956Z,2732
2018-07-26T04:54:15.455Z,2772
2018-07-26T04:54:41.028Z,2816
2018-07-26T04:55:06.430Z,2860
2018-07-26T04:55:31.934Z,2920
2018-07-26T04:55:57.608Z,2976
2018-07-26T04:56:22.914Z,3040
2018-07-26T04:56:48.416Z,3100
2018-07-26T04:57:13.895Z,3160
2018-07-26T04:57:39.397Z,3212
2018-07-26T04:58:04.908Z,3264
2018-07-26T04:58:30.422Z,3308
2018-07-26T04:58:55.936Z,3336
2018-07-26T04:59:21.452Z,3364
2018-07-26T04:59:46.985Z,3396
2018-07-26T05:00:12.440Z,3420
2018-07-26T05:00:37.933Z,3440
2018-07-26T05:01:03.420Z,3416
2018-07-26T05:01:28.916Z,3352
2018-07-26T05:01:54.437Z,3316
2018-07-26T05:02:19.917Z,3308
2018-07-26T05:03:34.070Z,3324
2018-07-26T05:03:59.572Z,3340
2018-07-26T05:04:25.034Z,3356
2018-07-26T05:04:50.581Z,3380
2018-07-26T05:05:16.253Z,3404
2018-07-26T05:05:41.740Z,3432
2018-07-26T05:06:07.203Z,3460
2018-07-26T05:06:32.684Z,3488
2018-07-26T05:06:58.137Z,3516
2018-07-26T05:07:23.617Z,3540
2018-07-26T05:07:49.838Z,3568
2018-07-26T05:08:15.364Z,3596
2018-07-26T05:08:40.808Z,3636
2018-07-26T05:09:06.334Z,3684
2018-07-26T05:09:32.023Z,3736
2018-07-26T05:09:57.574Z,3796
2018-07-26T05:10:23.449Z,3860
2018-07-26T05:10:49.429Z,3920
2018-07-26T05:11:14.914Z,3984
2018-07-26T05:11:40.460Z,4040
2018-07-26T05:12:06.012Z,4100
2018-07-26T05:13:09.655Z,4236
2018-07-26T05:13:35.176Z,4288
2018-07-26T05:14:00.683Z,4328
2018-07-26T05:14:26.260Z,4364
2018-07-26T05:15:40.043Z,4424
2018-07-26T05:16:05.621Z,4432
2018-07-26T05:16:31.133Z,4436
2018-07-26T05:16:56.643Z,4444
2018-07-26T05:17:22.128Z,4448
2018-07-26T05:17:47.604Z,4456
2018-07-26T05:18:13.107Z,4464
2018-07-26T05:18:38.593Z,4480
2018-07-26T05:19:04.117Z,4504
2018-07-26T05:19:29.571Z,4528
2018-07-26T05:19:55.124Z,4556
2018-07-26T05:20:20.617Z,4588
2018-07-26T05:21:39.778Z,4728
2018-07-26T05:22:05.300Z,4784
2018-07-26T05:22:30.794Z,4844
2018-07-26T05:22:56.309Z,4900
2018-07-26T05:23:21.815Z,4956
2018-07-26T05:23:47.380Z,5064
2018-07-26T05:24:12.885Z,5132
2018-07-26T05:24:38.423Z,5176
2018-07-26T05:25:03.894Z,5212
2018-07-26T05:25:29.372Z,5248
2018-07-26T05:25:54.869Z,5280
2018-07-26T05:26:20.404Z,5308
2018-07-26T05:26:45.988Z,5328
2018-07-26T05:27:11.412Z,5352
2018-07-26T05:28:35.465Z,5400
2018-07-26T05:29:01.030Z,5420
2018-07-26T05:29:26.525Z,5448
2018-07-26T05:29:51.979Z,5484
2018-07-26T05:30:17.472Z,5528
2018-07-26T05:30:42.973Z,5580
2018-07-26T05:31:08.469Z,5636
2018-07-26T05:31:34.102Z,5688
2018-07-26T05:31:59.624Z,5740
2018-07-26T05:32:25.101Z,5772
2018-07-26T05:32:50.637Z,5792
2018-07-26T05:33:16.161Z,5804
2018-07-26T05:33:41.665Z,5768
2018-07-26T05:34:07.189Z,5720
2018-07-26T05:34:32.714Z,5648
2018-07-26T05:34:58.206Z,5552
2018-07-26T05:35:23.692Z,5432
2018-07-26T05:35:49.209Z,5312
2018-07-26T05:36:14.686Z,5176
2018-07-26T05:37:38.812Z,4768
2018-07-26T05:38:04.222Z,4672
2018-07-26T05:38:29.721Z,4588
2018-07-26T05:38:55.217Z,4528
2018-07-26T05:39:58.841Z,4424
2018-07-26T05:40:24.343Z,4400
2018-07-26T05:40:49.841Z,4384
2018-07-26T05:41:15.334Z,4368
2018-07-26T05:41:40.826Z,4348
2018-07-26T05:42:06.364Z,4316
2018-07-26T05:42:31.873Z,4276
2018-07-26T05:42:57.490Z,4220
2018-07-26T05:43:22.954Z,4164
2018-07-26T05:43:48.383Z,4100
2018-07-26T05:44:13.886Z,4040
2018-07-26T05:44:39.387Z,3980
2018-07-26T05:45:04.894Z,3920
2018-07-26T05:45:30.399Z,3864
2018-07-26T05:45:55.867Z,3808
2018-07-26T05:46:21.368Z,3756
2018-07-26T05:46:46.868Z,3704
2018-07-26T05:47:55.948Z,3556
2018-07-26T05:48:21.435Z,3504
2018-07-26T05:48:46.911Z,3456
2018-07-26T05:49:12.404Z,3412
2018-07-26T05:49:37.956Z,3376
2018-07-26T05:50:03.449Z,3340
2018-07-26T05:50:28.965Z,3312
2018-07-26T05:50:54.564Z,3292
2018-07-26T05:51:19.958Z,3280
2018-07-26T05:51:45.518Z,3260
2018-07-26T05:52:11.063Z,3240
2018-07-26T05:52:36.535Z,3216
2018-07-26T05:53:02.088Z,3200
2018-07-26T05:53:27.595Z,3184
2018-07-26T05:53:53.062Z,3168
2018-07-26T05:54:18.560Z,3148
2018-07-26T05:54:44.131Z,3140
2018-07-26T05:55:09.636Z,3148
2018-07-26T05:55:35.113Z,3176
2018-07-26T05:56:00.642Z,3212
2018-07-26T05:56:26.188Z,3232
2018-07-26T05:56:51.692Z,3264
2018-07-26T05:57:17.208Z,3312
2018-07-26T05:57:42.665Z,3372
2018-07-26T05:58:08.189Z,3428
2018-07-26T05:58:33.648Z,3476
2018-07-26T05:58:59.171Z,3504
2018-07-26T06:00:18.278Z,3548
2018-07-26T06:00:43.811Z,3540
2018-07-26T06:01:09.350Z,3516
2018-07-26T06:01:34.858Z,3484
2018-07-26T06:02:00.377Z,3456
2018-07-26T06:02:25.884Z,3432
2018-07-26T06:02:51.356Z,3412
2018-07-26T06:03:16.861Z,3400
2018-07-26T06:03:42.384Z,3392
2018-07-26T06:04:07.914Z,3388
2018-07-26T06:04:33.434Z,3392
2018-07-26T06:04:58.993Z,3388
2018-07-26T06:05:24.513Z,3392
2018-07-26T06:05:50.026Z,3408
2018-07-26T06:06:15.542Z,3428
2018-07-26T06:06:41.056Z,3448
2018-07-26T06:07:06.594Z,3472
2018-07-26T06:07:32.085Z,3484
2018-07-26T06:07:57.576Z,3488
2018-07-26T06:08:23.094Z,3496
2018-07-26T06:08:48.601Z,3500
2018-07-26T06:09:14.106Z,3508
2018-07-26T06:09:39.709Z,3516
2018-07-26T06:10:05.064Z,3524
2018-07-26T06:10:30.552Z,3520
2018-07-26T06:10:56.065Z,3516
2018-07-26T06:11:21.575Z,3500
2018-07-26T06:11:47.051Z,3468
2018-07-26T06:12:12.543Z,3448
2018-07-26T06:12:38.049Z,3424
2018-07-26T06:13:03.559Z,3400
2018-07-26T06:13:29.077Z,3376
2018-07-26T06:13:54.617Z,3360
2018-07-26T06:14:20.089Z,3360
2018-07-26T06:14:45.649Z,3352
2018-07-26T06:15:11.153Z,3356
2018-07-26T06:15:36.657Z,3356
2018-07-26T06:16:02.170Z,3360
2018-07-26T06:16:27.668Z,3364
2018-07-26T06:16:53.168Z,3372
2018-07-26T06:17:18.712Z,3392
2018-07-26T06:17:44.213Z,3428
2018-07-26T06:18:09.773Z,3472
2018-07-26T06:18:35.200Z,3516
2018-07-26T06:19:00.729Z,3580
2018-07-26T06:19:26.249Z,3660
2018-07-26T06:19:51.703Z,3740
2018-07-26T06:20:17.164Z,3808
2018-07-26T06:20:42.734Z,3884
2018-07-26T06:21:08.162Z,3944
2018-07-26T06:21:33.699Z,4004
2018-07-26T06:21:59.230Z,4056
2018-07-26T06:22:24.753Z,4104
2018-07-26T06:22:50.405Z,4152
2018-07-26T06:23:15.780Z,4200
2018-07-26T06:23:41.265Z,4236
2018-07-26T06:24:06.793Z,4280
2018-07-26T06:24:32.296Z,4324
2018-07-26T06:24:57.823Z,4388
2018-07-26T06:25:23.529Z,4456
2018-07-26T06:25:49.003Z,4520
2018-07-26T06:26:14.489Z,4592
2018-07-26T06:26:40.019Z,4656
2018-07-26T06:27:05.505Z,4700
2018-07-26T06:27:30.973Z,4744
2018-07-26T06:27:56.505Z,4776
2018-07-26T06:28:21.965Z,4812
2018-07-26T06:28:47.439Z,4856
2018-07-26T06:29:12.971Z,4900
2018-07-26T06:29:38.474Z,4936
2018-07-26T06:30:03.985Z,4968
2018-07-26T06:30:29.466Z,4988
2018-07-26T06:30:55.028Z,5008
2018-07-26T06:31:20.479Z,5024
2018-07-26T06:31:45.962Z,5044
2018-07-26T06:32:11.509Z,5068
2018-07-26T06:32:36.969Z,5100
2018-07-26T06:33:02.480Z,5116
2018-07-26T06:33:28.057Z,5176
2018-07-26T06:33:53.505Z,5216
2018-07-26T06:34:19.033Z,5248
2018-07-26T06:34:44.551Z,5272
2018-07-26T06:35:10.091Z,5300
2018-07-26T06:35:35.614Z,5328
2018-07-26T06:36:01.097Z,5368
2018-07-26T06:36:26.561Z,5400
2018-07-26T06:36:52.143Z,5432
2018-07-26T06:37:17.673Z,5456
2018-07-26T06:37:43.302Z,5476
2018-07-26T06:38:08.794Z,5504
2018-07-26T06:38:34.317Z,5540
2018-07-26T06:38:59.781Z,5580
2018-07-26T06:39:25.401Z,5616
2018-07-26T06:39:50.888Z,5652
2018-07-26T06:40:16.368Z,5676
2018-07-26T06:40:41.946Z,5692
2018-07-26T06:41:07.555Z,5708
2018-07-26T06:42:17.387Z,5728
2018-07-26T06:42:42.960Z,5736
2018-07-26T06:43:08.617Z,5760
2018-07-26T06:43:34.370Z,5804
2018-07-26T06:43:59.829Z,5864
2018-07-26T06:44:25.506Z,5940
2018-07-26T06:44:51.129Z,6028
2018-07-26T06:45:16.738Z,6108
2018-07-26T06:45:42.219Z,6184
2018-07-26T06:46:07.931Z,6260
2018-07-26T06:46:33.580Z,6328
2018-07-26T06:46:59.091Z,6388
2018-07-26T06:47:24.627Z,6452
2018-07-26T06:47:50.218Z,6488
2018-07-26T06:48:15.778Z,6528
2018-07-26T06:48:41.281Z,6572
2018-07-26T06:49:06.764Z,6608
2018-07-26T06:49:32.272Z,6620
2018-07-26T06:49:57.957Z,6636
2018-07-26T06:50:23.490Z,6632
2018-07-26T06:50:49.014Z,6636
2018-07-26T06:51:14.515Z,6668
2018-07-26T06:51:40.005Z,6716
2018-07-26T06:52:05.536Z,6752
2018-07-26T06:52:31.041Z,6788
2018-07-26T06:52:56.586Z,6872
2018-07-26T06:53:22.112Z,6980
2018-07-26T06:53:48.201Z,7068
2018-07-26T06:54:13.771Z,7152
2018-07-26T06:54:39.224Z,7256
2018-07-26T06:55:04.802Z,7396
2018-07-26T06:55:30.382Z,7544
2018-07-26T06:55:56.016Z,7656
2018-07-26T06:56:21.551Z,7764
2018-07-26T06:56:47.084Z,7892
2018-07-26T06:57:12.608Z,8116
2018-07-26T06:57:38.128Z,8348
2018-07-26T06:58:03.737Z,8596
2018-07-26T06:58:29.202Z,9024
2018-07-26T06:58:54.740Z,8972
2018-07-26T06:59:20.165Z,8764
2018-07-26T06:59:45.799Z,8656
2018-07-26T07:00:11.355Z,8560
2018-07-26T07:00:36.811Z,8444
2018-07-26T07:01:02.297Z,8324
2018-07-26T07:01:27.825Z,8212
2018-07-26T07:01:53.499Z,8104
2018-07-26T07:02:18.931Z,8012
2018-07-26T07:02:44.393Z,7936
2018-07-26T07:03:09.920Z,7868
2018-07-26T07:03:35.448Z,7800
2018-07-26T07:04:00.877Z,7756
2018-07-26T07:04:26.415Z,7716
2018-07-26T07:04:51.893Z,7692
2018-07-26T07:05:17.381Z,7696
2018-07-26T07:05:42.929Z,7724
2018-07-26T07:06:08.427Z,7780
2018-07-26T07:06:34.034Z,7832
2018-07-26T07:06:59.570Z,7888
2018-07-26T07:07:25.100Z,7928
2018-07-26T07:07:50.617Z,7936
2018-07-26T07:08:16.112Z,7928
2018-07-26T07:08:41.662Z,7904
2018-07-26T07:09:07.140Z,7876
2018-07-26T07:09:32.623Z,7868
2018-07-26T07:09:58.145Z,7884
2018-07-26T07:10:23.590Z,7940
2018-07-26T07:10:49.087Z,8016
2018-07-26T07:11:14.627Z,8128
2018-07-26T07:11:40.086Z,8240
2018-07-26T07:12:05.598Z,8344
2018-07-26T07:12:31.107Z,8584
2018-07-26T07:12:56.572Z,8512
2018-07-26T07:13:22.208Z,8568
2018-07-26T07:13:47.697Z,8628
2018-07-26T07:14:13.200Z,8664
2018-07-26T07:14:38.761Z,8672
2018-07-26T07:15:04.267Z,8672
2018-07-26T07:15:29.760Z,8668
2018-07-26T07:15:55.260Z,8648
2018-07-26T07:16:20.731Z,8612
2018-07-26T07:16:46.217Z,8568
2018-07-26T07:17:11.704Z,8520
2018-07-26T07:17:37.201Z,8480
2018-07-26T07:18:02.659Z,8444
2018-07-26T07:18:28.146Z,8380
2018-07-26T07:18:53.628Z,8336
2018-07-26T07:19:19.108Z,8292
2018-07-26T07:19:44.600Z,8248
2018-07-26T07:20:10.072Z,8208
2018-07-26T07:20:35.629Z,8196
2018-07-26T07:21:01.064Z,8224
2018-07-26T07:21:26.552Z,8284
2018-07-26T07:21:52.038Z,8376
2018-07-26T07:22:17.523Z,8492
2018-07-26T07:22:43.036Z,8616
2018-07-26T07:23:08.510Z,8792
2018-07-26T07:23:34.029Z,9052
2018-07-26T07:23:59.480Z,9392
2018-07-26T07:24:24.970Z,9820
2018-07-26T07:24:50.476Z,10712
2018-07-26T07:25:15.947Z,12036
2018-07-26T07:26:19.664Z,11564
2018-07-26T07:26:45.164Z,11408
2018-07-26T07:27:10.666Z,12304
2018-07-26T07:27:36.215Z,11092
2018-07-26T07:28:01.713Z,9956
2018-07-26T07:28:27.203Z,9316
2018-07-26T07:28:52.698Z,9048
2018-07-26T07:29:18.197Z,8828
2018-07-26T07:29:43.687Z,8748
2018-07-26T07:30:09.162Z,8688
2018-07-26T07:30:34.685Z,8640
2018-07-26T07:31:00.188Z,8600
2018-07-26T07:31:25.725Z,8564
2018-07-26T07:31:51.388Z,8544
2018-07-26T07:32:16.840Z,8540
2018-07-26T07:33:25.528Z,8908
2018-07-26T07:33:51.429Z,9364
2018-07-26T07:34:16.861Z,10828
2018-07-26T07:34:42.371Z,14476
2018-07-26T07:35:07.860Z,16672
2018-07-26T07:35:33.414Z,14604
2018-07-26T07:35:58.910Z,14380
2018-07-26T07:36:24.494Z,15576
2018-07-26T07:36:50.052Z,15380
2018-07-26T07:37:15.805Z,15560
2018-07-26T07:37:41.287Z,16384
2018-07-26T07:38:06.815Z,17760
2018-07-26T07:38:32.350Z,19872
2018-07-26T07:38:57.818Z,22240
2018-07-26T07:39:23.415Z,24352
2018-07-26T07:39:48.871Z,26752
2018-07-26T07:40:14.366Z,28000
2018-07-26T07:40:39.988Z,27072
2018-07-26T07:41:05.732Z,26272
2018-07-26T07:41:31.189Z,26560
2018-07-26T07:41:56.718Z,27424
2018-07-26T07:42:22.340Z,26848
2018-07-26T07:42:47.992Z,25024
2018-07-26T07:43:13.528Z,22304
2018-07-26T07:43:38.998Z,19808
2018-07-26T07:44:04.483Z,17792
2018-07-26T07:44:29.945Z,16000
2018-07-26T07:44:55.420Z,14608
2018-07-26T07:45:20.943Z,14100
2018-07-26T07:45:46.367Z,13924
2018-07-26T07:46:11.867Z,13844
2018-07-26T07:46:37.415Z,13780
2018-07-26T07:47:02.829Z,13624
2018-07-26T07:47:28.383Z,13408
2018-07-26T07:47:53.831Z,13128
2018-07-26T07:48:19.293Z,12836
2018-07-26T07:48:44.834Z,12580
2018-07-26T07:49:10.321Z,12412
2018-07-26T07:49:35.931Z,12236
2018-07-26T07:50:01.486Z,12172
2018-07-26T07:50:26.985Z,12160
2018-07-26T07:50:52.659Z,12268
2018-07-26T07:51:18.202Z,12392
2018-07-26T07:51:43.863Z,12588
2018-07-26T07:52:09.503Z,12708
2018-07-26T07:52:35.187Z,12768
2018-07-26T07:53:00.860Z,12748
2018-07-26T07:53:26.187Z,12644
2018-07-26T07:53:51.789Z,12544
2018-07-26T07:54:17.179Z,12532
2018-07-26T07:54:42.671Z,12408
2018-07-26T07:55:08.154Z,12368
2018-07-26T07:55:33.752Z,12316
2018-07-26T07:55:59.250Z,12268
2018-07-26T07:56:24.739Z,12288
2018-07-26T07:56:50.307Z,12244
2018-07-26T07:57:15.810Z,12200
2018-07-26T07:57:41.359Z,12140
2018-07-26T07:58:06.855Z,12072
2018-07-26T07:58:32.373Z,12004
2018-07-26T07:58:57.921Z,11904
2018-07-26T07:59:23.443Z,11812
2018-07-26T07:59:48.967Z,11744
2018-07-26T08:00:14.461Z,11656
2018-07-26T08:00:39.948Z,11588
2018-07-26T08:01:05.431Z,11552
2018-07-26T08:01:30.959Z,11520
2018-07-26T08:01:56.470Z,11508
2018-07-26T08:02:21.935Z,11444
2018-07-26T08:02:47.477Z,11460
2018-07-26T08:03:12.971Z,11452
2018-07-26T08:03:38.516Z,11476
2018-07-26T08:04:04.049Z,11444
2018-07-26T08:04:29.540Z,11396
2018-07-26T08:04:55.030Z,11276
2018-07-26T08:05:20.568Z,10976
2018-07-26T08:05:46.030Z,10540
2018-07-26T08:06:11.547Z,10092
2018-07-26T08:06:37.041Z,9576
2018-07-26T08:07:02.586Z,9112
2018-07-26T08:07:28.068Z,8872
2018-07-26T08:07:53.690Z,8760
2018-07-26T08:08:19.231Z,8688
2018-07-26T08:08:44.699Z,8628
2018-07-26T08:09:10.277Z,8588
2018-07-26T08:09:35.773Z,8560
2018-07-26T08:10:01.523Z,8536
2018-07-26T08:10:27.150Z,8516
2018-07-26T08:10:52.668Z,8512
2018-07-26T08:11:18.181Z,8500
2018-07-26T08:11:43.694Z,8500
2018-07-26T08:12:09.213Z,8512
2018-07-26T08:12:34.709Z,8488
2018-07-26T08:13:00.205Z,8468
2018-07-26T08:13:25.689Z,8472
2018-07-26T08:13:51.176Z,8468
2018-07-26T08:14:16.736Z,8464
2018-07-26T08:14:42.271Z,8468
2018-07-26T08:15:07.837Z,8480
2018-07-26T08:15:33.288Z,8528
2018-07-26T08:15:58.877Z,8652
2018-07-26T08:16:24.364Z,8800
2018-07-26T08:16:49.873Z,8944
2018-07-26T08:17:15.393Z,9080
2018-07-26T08:17:41.056Z,9180
2018-07-26T08:18:06.390Z,9236
2018-07-26T08:18:31.884Z,9244
2018-07-26T08:18:57.384Z,9248
2018-07-26T08:19:22.900Z,9240
2018-07-26T08:19:48.491Z,9252
2018-07-26T08:20:14.045Z,9252
2018-07-26T08:20:39.534Z,9236
2018-07-26T08:21:05.067Z,9220
2018-07-26T08:21:30.583Z,9200
2018-07-26T08:21:56.081Z,9168
2018-07-26T08:22:21.606Z,9140
2018-07-26T08:22:47.133Z,9120
2018-07-26T08:23:12.673Z,9084
2018-07-26T08:23:38.179Z,9048
2018-07-26T08:24:03.732Z,8980
2018-07-26T08:24:29.246Z,8916
2018-07-26T08:24:54.786Z,8848
2018-07-26T08:25:20.272Z,8788
2018-07-26T08:26:34.088Z,8508
2018-07-26T08:26:59.576Z,8424
2018-07-26T08:27:25.081Z,8308
2018-07-26T08:27:50.589Z,8208
2018-07-26T08:28:16.080Z,8116
2018-07-26T08:28:41.565Z,8032
2018-07-26T08:29:07.084Z,7936
2018-07-26T08:29:32.601Z,7860
2018-07-26T08:29:58.086Z,7792
2018-07-26T08:30:23.575Z,7720
2018-07-26T08:31:27.215Z,7548
2018-07-26T08:31:52.768Z,7480
2018-07-26T08:32:18.242Z,7420
2018-07-26T08:32:43.787Z,7356
2018-07-26T08:33:09.295Z,7284
2018-07-26T08:33:34.819Z,7228
2018-07-26T08:34:00.335Z,7164
2018-07-26T08:34:25.820Z,7100
2018-07-26T08:35:50.060Z,6928
2018-07-26T08:36:15.551Z,6888
2018-07-26T08:36:41.031Z,6848
2018-07-26T08:37:06.566Z,6796
2018-07-26T08:37:32.048Z,6740
2018-07-26T08:37:57.588Z,6692
2018-07-26T08:38:23.060Z,6644
2018-07-26T08:38:48.558Z,6600
2018-07-26T08:39:14.078Z,6548
2018-07-26T08:40:22.803Z,6404
2018-07-26T08:40:48.322Z,6352
2018-07-26T08:41:13.843Z,6296
2018-07-26T08:41:39.394Z,6256
2018-07-26T08:42:04.997Z,6212
2018-07-26T08:42:30.499Z,6168
2018-07-26T08:42:56.011Z,6136
2018-07-26T08:43:21.516Z,6104
2018-07-26T08:43:47.110Z,6076
2018-07-26T08:44:12.500Z,6048
2018-07-26T08:44:37.977Z,6016
2018-07-26T08:45:03.460Z,5980
2018-07-26T08:45:29.004Z,5956
2018-07-26T08:45:54.506Z,5924
2018-07-26T08:46:19.997Z,5892
2018-07-26T08:46:45.502Z,5856
2018-07-26T08:47:11.049Z,5828
2018-07-26T08:47:36.544Z,5796
2018-07-26T08:48:02.076Z,5772
2018-07-26T08:48:27.733Z,5756
2018-07-26T08:48:53.273Z,5752
2018-07-26T08:49:18.752Z,5740
2018-07-26T08:49:44.255Z,5724
2018-07-26T08:50:09.798Z,5712
2018-07-26T08:50:35.304Z,5692
2018-07-26T08:51:00.795Z,5672
2018-07-26T08:51:26.439Z,5652
2018-07-26T08:51:52.106Z,5636
2018-07-26T08:52:17.732Z,5616
2018-07-26T08:52:43.292Z,5600
2018-07-26T08:53:08.700Z,5580
2018-07-26T08:53:34.198Z,5548
2018-07-26T08:53:59.735Z,5516
2018-07-26T08:54:25.246Z,5488
2018-07-26T08:54:50.792Z,5456
2018-07-26T08:55:16.326Z,5440
2018-07-26T08:55:41.795Z,5424
2018-07-26T08:56:07.277Z,5416
2018-07-26T08:56:32.785Z,5408
2018-07-26T08:56:58.284Z,5400
2018-07-26T08:57:23.811Z,5384
2018-07-26T08:57:49.660Z,5368
2018-07-26T08:58:15.023Z,5356
2018-07-26T08:58:40.528Z,5332
2018-07-26T08:59:06.067Z,5320
2018-07-26T08:59:31.624Z,5312
2018-07-26T08:59:57.158Z,5304
2018-07-26T09:00:22.870Z,5288
2018-07-26T09:01:31.592Z,5260
2018-07-26T09:01:57.098Z,5252
2018-07-26T09:02:22.752Z,5244
2018-07-26T09:02:48.361Z,5236
2018-07-26T09:03:13.773Z,5236
2018-07-26T09:03:39.261Z,5236
2018-07-26T09:04:04.772Z,5236
2018-07-26T09:04:30.255Z,5236
2018-07-26T09:04:55.753Z,5236
2018-07-26T09:05:21.288Z,5232
2018-07-26T09:05:46.743Z,5236
2018-07-26T09:06:12.401Z,5240
2018-07-26T09:06:37.937Z,5224
2018-07-26T09:07:03.443Z,5212
2018-07-26T09:07:29.004Z,5196
2018-07-26T09:07:54.499Z,5184
2018-07-26T09:08:19.952Z,5164
2018-07-26T09:08:45.431Z,5148
2018-07-26T09:09:10.901Z,5128
2018-07-26T09:09:36.537Z,5116
2018-07-26T09:10:02.043Z,5080
2018-07-26T09:10:27.600Z,5040
2018-07-26T09:10:53.074Z,5024
2018-07-26T09:11:18.559Z,5008
2018-07-26T09:11:44.094Z,5008
2018-07-26T09:12:09.646Z,4992
2018-07-26T09:12:35.156Z,4964
2018-07-26T09:13:00.676Z,4948
2018-07-26T09:13:26.433Z,4928
2018-07-26T09:13:52.081Z,4920
2018-07-26T09:14:17.717Z,4912
2018-07-26T09:14:43.560Z,4892
2018-07-26T09:15:09.225Z,4876
2018-07-26T09:15:34.956Z,4860
2018-07-26T09:16:00.531Z,4848
2018-07-26T09:16:26.046Z,4836
2018-07-26T09:16:51.589Z,4828
2018-07-26T09:17:17.120Z,4824
2018-07-26T09:17:42.806Z,4820
2018-07-26T09:18:08.345Z,4800
2018-07-26T09:18:33.829Z,4784
2018-07-26T09:18:59.350Z,4780
2018-07-26T09:19:24.842Z,4780
2018-07-26T09:19:50.719Z,4776
2018-07-26T09:20:16.158Z,4780
2018-07-26T09:20:41.652Z,4788
2018-07-26T09:21:07.257Z,4800
2018-07-26T09:21:32.943Z,4804
2018-07-26T09:21:58.535Z,4808
2018-07-26T09:22:24.254Z,4800
2018-07-26T09:22:49.558Z,4792
2018-07-26T09:23:15.066Z,4772
2018-07-26T09:23:40.609Z,4764
2018-07-26T09:24:06.424Z,4756
2018-07-26T09:24:31.971Z,4756
2018-07-26T09:24:57.468Z,4740
2018-07-26T09:25:22.999Z,4712
2018-07-26T09:25:48.510Z,4696
2018-07-26T09:26:14.121Z,4692
2018-07-26T09:26:39.649Z,4692
2018-07-26T09:27:05.130Z,4688
2018-07-26T09:27:30.597Z,4676
2018-07-26T09:27:56.126Z,4668
2018-07-26T09:28:21.626Z,4664
2018-07-26T09:28:47.161Z,4668
2018-07-26T09:29:12.589Z,4668
2018-07-26T09:29:38.088Z,4680
2018-07-26T09:30:03.542Z,4676
2018-07-26T09:30:29.063Z,4676
2018-07-26T09:30:54.584Z,4668
2018-07-26T09:31:20.101Z,4664
2018-07-26T09:31:45.661Z,4672
2018-07-26T09:32:11.282Z,4676
2018-07-26T09:32:37.046Z,4684
2018-07-26T09:33:02.605Z,4680
2018-07-26T09:33:28.142Z,4656
2018-07-26T09:33:53.876Z,4644
2018-07-26T09:34:19.463Z,4636
2018-07-26T09:34:44.984Z,4612
2018-07-26T09:35:10.571Z,4600
2018-07-26T09:35:36.035Z,4596
2018-07-26T09:36:01.624Z,4600
2018-07-26T09:36:27.116Z,4588
2018-07-26T09:36:52.637Z,4592
2018-07-26T09:37:18.288Z,4604
2018-07-26T09:37:43.754Z,4608
2018-07-26T09:38:09.383Z,4596
2018-07-26T09:38:34.868Z,4592
2018-07-26T09:39:00.383Z,4580
2018-07-26T09:39:25.928Z,4556
2018-07-26T09:39:51.415Z,4544
2018-07-26T09:40:16.926Z,4520
2018-07-26T09:40:42.415Z,4512
2018-07-26T09:41:07.960Z,4500
2018-07-26T09:41:33.424Z,4492
2018-07-26T09:42:37.074Z,4472
2018-07-26T09:43:02.652Z,4464
2018-07-26T09:43:28.285Z,4456
2018-07-26T09:43:53.845Z,4444
2018-07-26T09:44:19.666Z,4436
2018-07-26T09:44:45.435Z,4432
2018-07-26T09:45:10.994Z,4424
2018-07-26T09:45:36.540Z,4416
2018-07-26T09:46:02.049Z,4420
2018-07-26T09:46:27.541Z,4416
2018-07-26T09:46:53.166Z,4412
2018-07-26T09:47:18.686Z,4392
2018-07-26T09:47:44.176Z,4380
2018-07-26T09:48:09.664Z,4360
2018-07-26T09:48:35.264Z,4332
2018-07-26T09:49:00.667Z,4316
2018-07-26T09:49:26.157Z,4312
2018-07-26T09:49:51.987Z,4308
2018-07-26T09:50:17.412Z,4304
2018-07-26T09:50:42.962Z,4292
2018-07-26T09:51:08.470Z,4288
2018-07-26T09:51:33.944Z,4276
2018-07-26T09:51:59.528Z,4260
2018-07-26T09:52:25.039Z,4252
2018-07-26T09:52:50.613Z,4252
2018-07-26T09:53:16.128Z,4240
2018-07-26T09:53:41.794Z,4232
2018-07-26T09:54:07.305Z,4228
2018-07-26T09:54:32.809Z,4216
2018-07-26T09:54:58.334Z,4216
2018-07-26T09:55:23.793Z,4208
2018-07-26T09:55:49.251Z,4196
2018-07-26T09:56:14.739Z,4188
2018-07-26T09:56:40.252Z,4184
2018-07-26T09:57:06.149Z,4188
2018-07-26T09:57:31.658Z,4180
2018-07-26T09:57:57.313Z,4164
2018-07-26T09:58:22.798Z,4156
2018-07-26T09:58:48.725Z,4144
2018-07-26T09:59:14.356Z,4144
2018-07-26T09:59:39.979Z,4140
2018-07-26T10:00:05.486Z,4132
2018-07-26T10:01:09.134Z,4132
2018-07-26T10:01:34.634Z,4124
2018-07-26T10:02:00.171Z,4108
2018-07-26T10:02:25.732Z,4100
2018-07-26T10:02:51.234Z,4092
2018-07-26T10:03:16.768Z,4084
2018-07-26T10:03:42.345Z,4072
2018-07-26T10:04:07.817Z,4064